PWSweather.com
Personal Weather Stations
Station Observations
KNCCHINA3
Red Tractor Trail, China Grove, NC 28023

Red Tractor TrailChina Grove, NC 28023

Lat: 35.59751, Lon: -80.60201

Elevation: 800

Station Type: Oregon Scientific WMR 968

http://www.joesweathergarage.com

High Low Average
Temperature 79.7°F26.5°C 42.7°F5.9°C 61.3°F16.3°C
Dew Point 51.6°F10.9°C 38.5°F3.6°C 43.2°F6.2°C
Winds 15.1 mph 24.3 kmh Calm Calm 5.0 mph S8.0 kmh S
Wind Gusts 26.8 mph43.1 kmh -- 9.0 mph14.5 kmh
Humidity 95% 31% 57%
Pressure 30.24 in1024.0 mb 30.00 in1015.9 mb -
Precipitation 0.00 in0.0 mm - -
Hour Temp Dew Point Humidity Winds Wind Gusts Pressure Precip Precip Rate Daily Precip Total
12:01 AM 45.0°F7.2°C 37.5°F3.1°C 75% Calm Calm -- 30.12 in1020.0 mb 0.00 in0.0 mm 0.00 in0.0 mm 0.00 in0.0 mm
12:06 AM 44.9°F7.2°C 37.4°F3.0°C 75% Calm Calm -- 30.18 in1022.0 mb 0.00 in0.0 mm 0.00 in0.0 mm 0.00 in0.0 mm
12:11 AM 45.0°F7.2°C 37.5°F3.1°C 75% Calm Calm -- 30.18 in1022.0 mb 0.00 in0.0 mm 0.00 in0.0 mm 0.00 in0.0 mm
12:16 AM 44.9°F7.2°C 37.8°F3.2°C 76% Calm Calm -- 30.18 in1022.0 mb 0.00 in0.0 mm 0.00 in0.0 mm 0.00 in0.0 mm
12:21 AM 44.9°F7.2°C 37.8°F3.2°C 76% Calm Calm -- 30.12 in1020.0 mb 0.00 in0.0 mm 0.00 in0.0 mm 0.00 in0.0 mm
12:27 AM 44.7°F7.1°C 38.2°F3.4°C 78% Calm Calm -- 30.12 in1020.0 mb 0.00 in0.0 mm 0.00 in0.0 mm 0.00 in0.0 mm
12:32 AM 44.5°F6.9°C 37.7°F3.2°C 77% Calm Calm -- 30.12 in1020.0 mb 0.00 in0.0 mm 0.00 in0.0 mm 0.00 in0.0 mm
12:37 AM 44.5°F6.9°C 38.0°F3.3°C 78% Calm Calm -- 30.12 in1020.0 mb 0.00 in0.0 mm 0.00 in0.0 mm 0.00 in0.0 mm
12:42 AM 44.7°F7.1°C 38.2°F3.4°C 78% Calm Calm -- 30.12 in1020.0 mb 0.00 in0.0 mm 0.00 in0.0 mm 0.00 in0.0 mm
12:48 AM 45.0°F7.2°C 38.5°F3.6°C 78% 3.3 mph ESE5.3 kmh ESE 4.4 mph7.1 kmh 30.12 in1020.0 mb 0.00 in0.0 mm 0.00 in0.0 mm 0.00 in0.0 mm
12:53 AM 45.2°F7.3°C 38.7°F3.7°C 78% Calm Calm 4.4 mph7.1 kmh 30.15 in1021.0 mb 0.00 in0.0 mm 0.00 in0.0 mm 0.00 in0.0 mm
12:58 AM 45.4°F7.4°C 38.9°F3.8°C 78% Calm Calm -- 30.15 in1021.0 mb 0.00 in0.0 mm 0.00 in0.0 mm 0.00 in0.0 mm
01:03 AM 45.4°F7.4°C 38.9°F3.8°C 78% Calm Calm -- 30.15 in1021.0 mb 0.00 in0.0 mm 0.00 in0.0 mm 0.00 in0.0 mm
01:09 AM 45.4°F7.4°C 38.6°F3.7°C 77% 2.4 mph ESE3.9 kmh ESE 2.6 mph4.2 kmh 30.12 in1020.0 mb 0.00 in0.0 mm 0.00 in0.0 mm 0.00 in0.0 mm
01:13 AM 45.8°F7.7°C 39.0°F3.9°C 77% Calm Calm 2.6 mph4.2 kmh 30.12 in1020.0 mb 0.00 in0.0 mm 0.00 in0.0 mm 0.00 in0.0 mm
01:19 AM 45.8°F7.7°C 39.0°F3.9°C 77% Calm Calm 2.6 mph4.2 kmh 30.12 in1020.0 mb 0.00 in0.0 mm 0.00 in0.0 mm 0.00 in0.0 mm
01:23 AM 45.8°F7.7°C 39.0°F3.9°C 77% Calm Calm -- 30.15 in1021.0 mb 0.00 in0.0 mm 0.00 in0.0 mm 0.00 in0.0 mm
01:29 AM 45.6°F7.6°C 38.8°F3.8°C 77% Calm Calm -- 30.15 in1021.0 mb 0.00 in0.0 mm 0.00 in0.0 mm 0.00 in0.0 mm
01:33 AM 45.8°F7.7°C 39.0°F3.9°C 77% Calm Calm -- 30.15 in1021.0 mb 0.00 in0.0 mm 0.00 in0.0 mm 0.00 in0.0 mm
01:39 AM 45.8°F7.7°C 39.0°F3.9°C 77% Calm Calm -- 30.12 in1020.0 mb 0.00 in0.0 mm 0.00 in0.0 mm 0.00 in0.0 mm
01:44 AM 45.8°F7.7°C 39.0°F3.9°C 77% Calm Calm -- 30.12 in1020.0 mb 0.00 in0.0 mm 0.00 in0.0 mm 0.00 in0.0 mm
01:49 AM 45.6°F7.6°C 38.8°F3.8°C 77% Calm Calm -- 30.12 in1020.0 mb 0.00 in0.0 mm 0.00 in0.0 mm 0.00 in0.0 mm
01:54 AM 45.6°F7.6°C 38.8°F3.8°C 77% Calm Calm -- 30.12 in1020.0 mb 0.00 in0.0 mm 0.00 in0.0 mm 0.00 in0.0 mm
01:59 AM 45.6°F7.6°C 39.1°F3.9°C 78% Calm Calm -- 30.12 in1020.0 mb 0.00 in0.0 mm 0.00 in0.0 mm 0.00 in0.0 mm
02:04 AM 45.2°F7.3°C 39.0°F3.9°C 79% Calm Calm -- 30.12 in1020.0 mb 0.00 in0.0 mm 0.00 in0.0 mm 0.00 in0.0 mm
02:10 AM 45.0°F7.2°C 38.8°F3.8°C 79% Calm Calm -- 30.12 in1020.0 mb 0.00 in0.0 mm 0.00 in0.0 mm 0.00 in0.0 mm
02:15 AM 44.9°F7.2°C 38.7°F3.7°C 79% Calm Calm -- 30.12 in1020.0 mb 0.00 in0.0 mm 0.00 in0.0 mm 0.00 in0.0 mm
02:20 AM 44.9°F7.2°C 38.7°F3.7°C 79% Calm Calm -- 30.12 in1020.0 mb 0.00 in0.0 mm 0.00 in0.0 mm 0.00 in0.0 mm
02:25 AM 44.7°F7.1°C 38.9°F3.8°C 80% Calm Calm -- 30.15 in1021.0 mb 0.00 in0.0 mm 0.00 in0.0 mm 0.00 in0.0 mm
02:30 AM 44.7°F7.1°C 38.5°F3.6°C 79% Calm Calm -- 30.15 in1021.0 mb 0.00 in0.0 mm 0.00 in0.0 mm 0.00 in0.0 mm
02:35 AM 44.9°F7.2°C 39.1°F3.9°C 80% Calm Calm -- 30.15 in1021.0 mb 0.00 in0.0 mm 0.00 in0.0 mm 0.00 in0.0 mm
02:41 AM 44.9°F7.2°C 39.1°F3.9°C 80% Calm Calm -- 30.18 in1022.0 mb 0.00 in0.0 mm 0.00 in0.0 mm 0.00 in0.0 mm
02:46 AM 44.7°F7.1°C 38.9°F3.8°C 80% Calm Calm -- 30.18 in1022.0 mb 0.00 in0.0 mm 0.00 in0.0 mm 0.00 in0.0 mm
02:51 AM 44.7°F7.1°C 39.2°F4.0°C 81% Calm Calm -- 30.18 in1022.0 mb 0.00 in0.0 mm 0.00 in0.0 mm 0.00 in0.0 mm
02:56 AM 44.5°F6.9°C 39.0°F3.9°C 81% Calm Calm -- 30.15 in1021.0 mb 0.00 in0.0 mm 0.00 in0.0 mm 0.00 in0.0 mm
03:01 AM 44.5°F6.9°C 39.0°F3.9°C 81% Calm Calm -- 30.15 in1021.0 mb 0.00 in0.0 mm 0.00 in0.0 mm 0.00 in0.0 mm
03:06 AM 44.3°F6.8°C 39.1°F3.9°C 82% Calm Calm -- 30.15 in1021.0 mb 0.00 in0.0 mm 0.00 in0.0 mm 0.00 in0.0 mm
03:12 AM 44.1°F6.7°C 39.2°F4.0°C 83% Calm Calm -- 30.15 in1021.0 mb 0.00 in0.0 mm 0.00 in0.0 mm 0.00 in0.0 mm
03:17 AM 44.1°F6.7°C 39.2°F4.0°C 83% Calm Calm -- 30.15 in1021.0 mb 0.00 in0.0 mm 0.00 in0.0 mm 0.00 in0.0 mm
03:22 AM 44.1°F6.7°C 39.2°F4.0°C 83% Calm Calm -- 30.15 in1021.0 mb 0.00 in0.0 mm 0.00 in0.0 mm 0.00 in0.0 mm
03:27 AM 44.0°F6.7°C 39.4°F4.1°C 84% Calm Calm -- 30.15 in1021.0 mb 0.00 in0.0 mm 0.00 in0.0 mm 0.00 in0.0 mm
03:32 AM 44.0°F6.7°C 39.4°F4.1°C 84% Calm Calm -- 30.15 in1021.0 mb 0.00 in0.0 mm 0.00 in0.0 mm 0.00 in0.0 mm
03:37 AM 44.0°F6.7°C 39.4°F4.1°C 84% Calm Calm -- 30.15 in1021.0 mb 0.00 in0.0 mm 0.00 in0.0 mm 0.00 in0.0 mm
03:42 AM 43.6°F6.4°C 39.3°F4.1°C 85% Calm Calm -- 30.15 in1021.0 mb 0.00 in0.0 mm 0.00 in0.0 mm 0.00 in0.0 mm
03:47 AM 43.6°F6.4°C 39.0°F3.9°C 84% Calm Calm -- 30.15 in1021.0 mb 0.00 in0.0 mm 0.00 in0.0 mm 0.00 in0.0 mm
03:52 AM 43.4°F6.3°C 39.1°F3.9°C 85% Calm Calm -- 30.15 in1021.0 mb 0.00 in0.0 mm 0.00 in0.0 mm 0.00 in0.0 mm
03:57 AM 43.4°F6.3°C 39.1°F3.9°C 85% Calm Calm -- 30.15 in1021.0 mb 0.00 in0.0 mm 0.00 in0.0 mm 0.00 in0.0 mm
04:03 AM 43.4°F6.3°C 39.4°F4.1°C 86% Calm Calm -- 30.15 in1021.0 mb 0.00 in0.0 mm 0.00 in0.0 mm 0.00 in0.0 mm
04:08 AM 43.6°F6.4°C 39.6°F4.2°C 86% Calm Calm -- 30.12 in1020.0 mb 0.00 in0.0 mm 0.00 in0.0 mm 0.00 in0.0 mm
04:13 AM 43.6°F6.4°C 39.6°F4.2°C 86% Calm Calm -- 30.12 in1020.0 mb 0.00 in0.0 mm 0.00 in0.0 mm 0.00 in0.0 mm
04:18 AM 44.0°F6.7°C 40.0°F4.4°C 86% Calm Calm -- 30.12 in1020.0 mb 0.00 in0.0 mm 0.00 in0.0 mm 0.00 in0.0 mm
04:23 AM 44.0°F6.7°C 40.0°F4.4°C 86% Calm Calm -- 30.12 in1020.0 mb 0.00 in0.0 mm 0.00 in0.0 mm 0.00 in0.0 mm
04:28 AM 44.0°F6.7°C 40.0°F4.4°C 86% Calm Calm -- 30.12 in1020.0 mb 0.00 in0.0 mm 0.00 in0.0 mm 0.00 in0.0 mm
04:34 AM 44.0°F6.7°C 40.0°F4.4°C 86% 3.3 mph ESE5.3 kmh ESE 4.0 mph6.4 kmh 30.12 in1020.0 mb 0.00 in0.0 mm 0.00 in0.0 mm 0.00 in0.0 mm
04:39 AM 44.1°F6.7°C 40.1°F4.5°C 86% 2.5 mph ESE4.0 kmh ESE 4.0 mph6.4 kmh 30.15 in1021.0 mb 0.00 in0.0 mm 0.00 in0.0 mm 0.00 in0.0 mm
04:44 AM 44.3°F6.8°C 40.3°F4.6°C 86% Calm Calm 4.0 mph6.4 kmh 30.15 in1021.0 mb 0.00 in0.0 mm 0.00 in0.0 mm 0.00 in0.0 mm
04:49 AM 44.1°F6.7°C 40.1°F4.5°C 86% Calm Calm -- 30.15 in1021.0 mb 0.00 in0.0 mm 0.00 in0.0 mm 0.00 in0.0 mm
04:54 AM 44.0°F6.7°C 40.0°F4.4°C 86% Calm Calm -- 30.15 in1021.0 mb 0.00 in0.0 mm 0.00 in0.0 mm 0.00 in0.0 mm
04:59 AM 44.0°F6.7°C 40.0°F4.4°C 86% Calm Calm -- 30.15 in1021.0 mb 0.00 in0.0 mm 0.00 in0.0 mm 0.00 in0.0 mm
05:04 AM 43.8°F6.6°C 40.1°F4.5°C 87% Calm Calm -- 30.15 in1021.0 mb 0.00 in0.0 mm 0.00 in0.0 mm 0.00 in0.0 mm
05:09 AM 43.6°F6.4°C 39.6°F4.2°C 86% Calm Calm -- 30.15 in1021.0 mb 0.00 in0.0 mm 0.00 in0.0 mm 0.00 in0.0 mm
05:14 AM 43.6°F6.4°C 39.9°F4.4°C 87% Calm Calm -- 30.15 in1021.0 mb 0.00 in0.0 mm 0.00 in0.0 mm 0.00 in0.0 mm
05:19 AM 43.4°F6.3°C 39.7°F4.3°C 87% Calm Calm -- 30.15 in1021.0 mb 0.00 in0.0 mm 0.00 in0.0 mm 0.00 in0.0 mm
05:25 AM 43.4°F6.3°C 39.7°F4.3°C 87% Calm Calm -- 30.12 in1020.0 mb 0.00 in0.0 mm 0.00 in0.0 mm 0.00 in0.0 mm
05:30 AM 43.4°F6.3°C 39.7°F4.3°C 87% Calm Calm -- 30.12 in1020.0 mb 0.00 in0.0 mm 0.00 in0.0 mm 0.00 in0.0 mm
05:35 AM 43.4°F6.3°C 39.7°F4.3°C 87% Calm Calm -- 30.12 in1020.0 mb 0.00 in0.0 mm 0.00 in0.0 mm 0.00 in0.0 mm
05:40 AM 43.4°F6.3°C 39.7°F4.3°C 87% Calm Calm -- 30.15 in1021.0 mb 0.00 in0.0 mm 0.00 in0.0 mm 0.00 in0.0 mm
05:46 AM 43.4°F6.3°C 40.0°F4.4°C 88% Calm Calm -- 30.15 in1021.0 mb 0.00 in0.0 mm 0.00 in0.0 mm 0.00 in0.0 mm
05:51 AM 43.2°F6.2°C 39.8°F4.3°C 88% Calm Calm -- 30.15 in1021.0 mb 0.00 in0.0 mm 0.00 in0.0 mm 0.00 in0.0 mm
05:56 AM 43.1°F6.2°C 39.7°F4.3°C 88% Calm Calm -- 30.15 in1021.0 mb 0.00 in0.0 mm 0.00 in0.0 mm 0.00 in0.0 mm
06:01 AM 43.1°F6.2°C 39.7°F4.3°C 88% Calm Calm -- 30.15 in1021.0 mb 0.00 in0.0 mm 0.00 in0.0 mm 0.00 in0.0 mm
06:07 AM 42.9°F6.1°C 39.5°F4.2°C 88% Calm Calm -- 30.18 in1022.0 mb 0.00 in0.0 mm 0.00 in0.0 mm 0.00 in0.0 mm
06:12 AM 42.9°F6.1°C 39.8°F4.3°C 89% Calm Calm -- 30.18 in1022.0 mb 0.00 in0.0 mm 0.00 in0.0 mm 0.00 in0.0 mm
06:18 AM 42.7°F5.9°C 39.6°F4.2°C 89% Calm Calm -- 30.18 in1022.0 mb 0.00 in0.0 mm 0.00 in0.0 mm 0.00 in0.0 mm
06:23 AM 42.7°F5.9°C 39.6°F4.2°C 89% Calm Calm -- 30.15 in1021.0 mb 0.00 in0.0 mm 0.00 in0.0 mm 0.00 in0.0 mm
06:28 AM 42.7°F5.9°C 39.9°F4.4°C 90% Calm Calm -- 30.15 in1021.0 mb 0.00 in0.0 mm 0.00 in0.0 mm 0.00 in0.0 mm
06:33 AM 42.9°F6.1°C 40.1°F4.5°C 90% Calm Calm -- 30.15 in1021.0 mb 0.00 in0.0 mm 0.00 in0.0 mm 0.00 in0.0 mm
06:38 AM 42.7°F5.9°C 39.9°F4.4°C 90% Calm Calm -- 30.18 in1022.0 mb 0.00 in0.0 mm 0.00 in0.0 mm 0.00 in0.0 mm
06:43 AM 42.7°F5.9°C 39.9°F4.4°C 90% Calm Calm -- 30.18 in1022.0 mb 0.00 in0.0 mm 0.00 in0.0 mm 0.00 in0.0 mm
06:48 AM 42.7°F5.9°C 39.9°F4.4°C 90% Calm Calm -- 30.18 in1022.0 mb 0.00 in0.0 mm 0.00 in0.0 mm 0.00 in0.0 mm
06:53 AM 42.7°F5.9°C 40.1°F4.5°C 91% Calm Calm -- 30.18 in1022.0 mb 0.00 in0.0 mm 0.00 in0.0 mm 0.00 in0.0 mm
06:58 AM 42.9°F6.1°C 40.6°F4.8°C 92% Calm Calm -- 30.18 in1022.0 mb 0.00 in0.0 mm 0.00 in0.0 mm 0.00 in0.0 mm
07:03 AM 43.2°F6.2°C 40.9°F4.9°C 92% Calm Calm -- 30.18 in1022.0 mb 0.00 in0.0 mm 0.00 in0.0 mm 0.00 in0.0 mm
07:08 AM 43.6°F6.4°C 41.3°F5.2°C 92% Calm Calm -- 30.21 in1023.0 mb 0.00 in0.0 mm 0.00 in0.0 mm 0.00 in0.0 mm
07:13 AM 44.1°F6.7°C 42.1°F5.6°C 93% 2.1 mph N3.4 kmh N 3.2 mph5.1 kmh 30.21 in1023.0 mb 0.00 in0.0 mm 0.00 in0.0 mm 0.00 in0.0 mm
07:19 AM 44.9°F7.2°C 42.9°F6.1°C 93% Calm Calm 3.2 mph5.1 kmh 30.21 in1023.0 mb 0.00 in0.0 mm 0.00 in0.0 mm 0.00 in0.0 mm
07:24 AM 45.4°F7.4°C 43.4°F6.3°C 93% Calm Calm -- 30.24 in1024.0 mb 0.00 in0.0 mm 0.00 in0.0 mm 0.00 in0.0 mm
07:29 AM 45.9°F7.7°C 43.9°F6.6°C 93% 2.9 mph S4.7 kmh S 4.0 mph6.4 kmh 30.24 in1024.0 mb 0.00 in0.0 mm 0.00 in0.0 mm 0.00 in0.0 mm
07:34 AM 46.3°F7.9°C 44.5°F6.9°C 94% 1.8 mph SW2.9 kmh SW 4.0 mph6.4 kmh 30.24 in1024.0 mb 0.00 in0.0 mm 0.00 in0.0 mm 0.00 in0.0 mm
07:40 AM 46.8°F8.2°C 45.0°F7.2°C 94% 2.4 mph SSW3.9 kmh SSW 4.0 mph6.4 kmh 30.21 in1023.0 mb 0.00 in0.0 mm 0.00 in0.0 mm 0.00 in0.0 mm
07:45 AM 47.2°F8.4°C 45.7°F7.6°C 95% 2.0 mph S3.2 kmh S 4.0 mph6.4 kmh 30.21 in1023.0 mb 0.00 in0.0 mm 0.00 in0.0 mm 0.00 in0.0 mm
07:51 AM 47.6°F8.7°C 46.1°F7.8°C 95% 2.6 mph ENE4.2 kmh ENE 5.0 mph8.0 kmh 30.21 in1023.0 mb 0.00 in0.0 mm 0.00 in0.0 mm 0.00 in0.0 mm
07:56 AM 47.7°F8.7°C 45.9°F7.7°C 94% Calm Calm 5.0 mph8.0 kmh 30.21 in1023.0 mb 0.00 in0.0 mm 0.00 in0.0 mm 0.00 in0.0 mm
08:01 AM 48.1°F8.9°C 46.0°F7.8°C 93% Calm Calm 2.2 mph3.5 kmh 30.21 in1023.0 mb 0.00 in0.0 mm 0.00 in0.0 mm 0.00 in0.0 mm
08:06 AM 48.3°F9.1°C 46.2°F7.9°C 93% Calm Calm -- 30.21 in1023.0 mb 0.00 in0.0 mm 0.00 in0.0 mm 0.00 in0.0 mm
08:12 AM 48.8°F9.3°C 46.7°F8.2°C 93% Calm Calm -- 30.21 in1023.0 mb 0.00 in0.0 mm 0.00 in0.0 mm 0.00 in0.0 mm
08:17 AM 49.2°F9.6°C 47.1°F8.4°C 93% 3.5 mph ENE5.6 kmh ENE 4.0 mph6.4 kmh 30.21 in1023.0 mb 0.00 in0.0 mm 0.00 in0.0 mm 0.00 in0.0 mm
08:22 AM 49.7°F9.8°C 47.6°F8.7°C 93% 2.6 mph SW4.2 kmh SW 5.0 mph8.0 kmh 30.21 in1023.0 mb 0.00 in0.0 mm 0.00 in0.0 mm 0.00 in0.0 mm
08:26 AM 50.1°F10.1°C 47.7°F8.7°C 92% 3.2 mph SW5.1 kmh SW 5.8 mph9.3 kmh 30.21 in1023.0 mb 0.00 in0.0 mm 0.00 in0.0 mm 0.00 in0.0 mm
08:32 AM 50.4°F10.2°C 47.7°F8.7°C 91% 3.1 mph SW5.0 kmh SW 5.8 mph9.3 kmh 30.21 in1023.0 mb 0.00 in0.0 mm 0.00 in0.0 mm 0.00 in0.0 mm
08:37 AM 51.0°F10.6°C 48.3°F9.1°C 91% 3.4 mph S5.5 kmh S 7.2 mph11.6 kmh 30.21 in1023.0 mb 0.00 in0.0 mm 0.00 in0.0 mm 0.00 in0.0 mm
08:42 AM 51.9°F11.1°C 48.9°F9.4°C 90% 3.1 mph S5.0 kmh S 7.2 mph11.6 kmh 30.21 in1023.0 mb 0.00 in0.0 mm 0.00 in0.0 mm 0.00 in0.0 mm
08:47 AM 52.8°F11.6°C 49.5°F9.7°C 89% 3.6 mph SSW5.8 kmh SSW 5.4 mph8.7 kmh 30.21 in1023.0 mb 0.00 in0.0 mm 0.00 in0.0 mm 0.00 in0.0 mm
08:52 AM 53.0°F11.7°C 49.1°F9.5°C 87% 2.6 mph W4.2 kmh W 5.4 mph8.7 kmh 30.21 in1023.0 mb 0.00 in0.0 mm 0.00 in0.0 mm 0.00 in0.0 mm
08:57 AM 53.5°F11.9°C 49.3°F9.6°C 86% 4.0 mph WSW6.4 kmh WSW 6.2 mph10.0 kmh 30.21 in1023.0 mb 0.00 in0.0 mm 0.00 in0.0 mm 0.00 in0.0 mm
09:03 AM 54.0°F12.2°C 49.5°F9.7°C 85% 4.1 mph SSE6.6 kmh SSE 6.2 mph10.0 kmh 30.21 in1023.0 mb 0.00 in0.0 mm 0.00 in0.0 mm 0.00 in0.0 mm
09:08 AM 54.2°F12.3°C 49.4°F9.7°C 84% 5.6 mph SW9.0 kmh SW 7.6 mph12.2 kmh 30.21 in1023.0 mb 0.00 in0.0 mm 0.00 in0.0 mm 0.00 in0.0 mm
09:13 AM 54.6°F12.6°C 49.8°F9.9°C 84% 5.6 mph W9.0 kmh W 11.2 mph18.0 kmh 30.21 in1023.0 mb 0.00 in0.0 mm 0.00 in0.0 mm 0.00 in0.0 mm
09:18 AM 54.8°F12.7°C 49.7°F9.8°C 83% 5.2 mph SW8.4 kmh SW 11.2 mph18.0 kmh 30.21 in1023.0 mb 0.00 in0.0 mm 0.00 in0.0 mm 0.00 in0.0 mm
09:23 AM 54.8°F12.7°C 49.7°F9.8°C 83% 5.8 mph SSW9.3 kmh SSW 8.6 mph13.8 kmh 30.21 in1023.0 mb 0.00 in0.0 mm 0.00 in0.0 mm 0.00 in0.0 mm
09:28 AM 55.7°F13.2°C 50.2°F10.1°C 82% 5.2 mph W8.4 kmh W 8.6 mph13.8 kmh 30.21 in1023.0 mb 0.00 in0.0 mm 0.00 in0.0 mm 0.00 in0.0 mm
09:34 AM 57.8°F14.3°C 51.6°F10.9°C 80% 4.6 mph WSW7.4 kmh WSW 7.6 mph12.2 kmh 30.21 in1023.0 mb 0.00 in0.0 mm 0.00 in0.0 mm 0.00 in0.0 mm
09:39 AM 58.5°F14.7°C 50.2°F10.1°C 74% 6.8 mph WNW10.9 kmh WNW 8.6 mph13.8 kmh 30.24 in1024.0 mb 0.00 in0.0 mm 0.00 in0.0 mm 0.00 in0.0 mm
09:44 AM 59.3°F15.2°C 50.3°F10.2°C 72% 6.5 mph NW10.5 kmh NW 9.4 mph15.1 kmh 30.24 in1024.0 mb 0.00 in0.0 mm 0.00 in0.0 mm 0.00 in0.0 mm
09:49 AM 59.6°F15.3°C 49.8°F9.9°C 70% 7.1 mph WSW11.4 kmh WSW 11.2 mph18.0 kmh 30.24 in1024.0 mb 0.00 in0.0 mm 0.00 in0.0 mm 0.00 in0.0 mm
09:55 AM 59.8°F15.4°C 49.6°F9.8°C 69% 4.8 mph SSW7.7 kmh SSW 11.2 mph18.0 kmh 30.24 in1024.0 mb 0.00 in0.0 mm 0.00 in0.0 mm 0.00 in0.0 mm
10:00 AM 59.4°F15.2°C 48.9°F9.4°C 68% 6.7 mph WNW10.8 kmh WNW 11.2 mph18.0 kmh 30.24 in1024.0 mb 0.00 in0.0 mm 0.00 in0.0 mm 0.00 in0.0 mm
10:05 AM 60.6°F15.9°C 50.1°F10.1°C 68% 6.1 mph W9.8 kmh W 10.8 mph17.4 kmh 30.24 in1024.0 mb 0.00 in0.0 mm 0.00 in0.0 mm 0.00 in0.0 mm
10:10 AM 61.3°F16.3°C 50.0°F10.0°C 66% 6.1 mph W9.8 kmh W 10.8 mph17.4 kmh 30.24 in1024.0 mb 0.00 in0.0 mm 0.00 in0.0 mm 0.00 in0.0 mm
10:15 AM 62.9°F17.2°C 50.2°F10.1°C 63% 6.9 mph S11.1 kmh S 12.0 mph19.3 kmh 30.24 in1024.0 mb 0.00 in0.0 mm 0.00 in0.0 mm 0.00 in0.0 mm
10:20 AM 63.7°F17.6°C 49.7°F9.8°C 60% 8.1 mph SSW13.0 kmh SSW 12.6 mph20.3 kmh 30.24 in1024.0 mb 0.00 in0.0 mm 0.00 in0.0 mm 0.00 in0.0 mm
10:26 AM 64.4°F18.0°C 48.4°F9.1°C 56% 7.8 mph SW12.6 kmh SW 12.6 mph20.3 kmh 30.21 in1023.0 mb 0.00 in0.0 mm 0.00 in0.0 mm 0.00 in0.0 mm
10:31 AM 64.6°F18.1°C 48.1°F8.9°C 55% 7.3 mph WSW11.7 kmh WSW 12.6 mph20.3 kmh 30.21 in1023.0 mb 0.00 in0.0 mm 0.00 in0.0 mm 0.00 in0.0 mm
10:36 AM 65.3°F18.5°C 47.8°F8.8°C 53% 7.8 mph W12.6 kmh W 12.6 mph20.3 kmh 30.21 in1023.0 mb 0.00 in0.0 mm 0.00 in0.0 mm 0.00 in0.0 mm
10:41 AM 65.8°F18.8°C 48.2°F9.0°C 53% 6.0 mph WSW9.7 kmh WSW 9.8 mph15.8 kmh 30.21 in1023.0 mb 0.00 in0.0 mm 0.00 in0.0 mm 0.00 in0.0 mm
10:47 AM 67.3°F19.6°C 49.1°F9.5°C 52% 7.0 mph S11.3 kmh S 8.6 mph13.8 kmh 30.21 in1023.0 mb 0.00 in0.0 mm 0.00 in0.0 mm 0.00 in0.0 mm
10:52 AM 68.2°F20.1°C 48.3°F9.1°C 49% 8.1 mph SW13.0 kmh SW 12.6 mph20.3 kmh 30.21 in1023.0 mb 0.00 in0.0 mm 0.00 in0.0 mm 0.00 in0.0 mm
10:57 AM 68.5°F20.3°C 48.0°F8.9°C 48% 6.3 mph SW10.1 kmh SW 12.6 mph20.3 kmh 30.21 in1023.0 mb 0.00 in0.0 mm 0.00 in0.0 mm 0.00 in0.0 mm
11:02 AM 69.4°F20.8°C 48.8°F9.3°C 48% 5.9 mph SW9.5 kmh SW 11.6 mph18.7 kmh 30.21 in1023.0 mb 0.00 in0.0 mm 0.00 in0.0 mm 0.00 in0.0 mm
11:08 AM 70.7°F21.5°C 49.4°F9.7°C 47% 5.1 mph SW8.2 kmh SW 8.6 mph13.8 kmh 30.21 in1023.0 mb 0.00 in0.0 mm 0.00 in0.0 mm 0.00 in0.0 mm
11:13 AM 70.9°F21.6°C 48.4°F9.1°C 45% 6.9 mph SW11.1 kmh SW 9.8 mph15.8 kmh 30.21 in1023.0 mb 0.00 in0.0 mm 0.00 in0.0 mm 0.00 in0.0 mm
11:18 AM 70.5°F21.4°C 48.1°F8.9°C 45% 8.7 mph SW14.0 kmh SW 13.0 mph20.9 kmh 30.21 in1023.0 mb 0.00 in0.0 mm 0.00 in0.0 mm 0.00 in0.0 mm
11:23 AM 70.9°F21.6°C 47.8°F8.8°C 44% 9.3 mph SSW15.0 kmh SSW 13.0 mph20.9 kmh 30.21 in1023.0 mb 0.00 in0.0 mm 0.00 in0.0 mm 0.00 in0.0 mm
11:29 AM 71.2°F21.8°C 48.1°F8.9°C 44% 6.7 mph WSW10.8 kmh WSW 12.0 mph19.3 kmh 30.21 in1023.0 mb 0.00 in0.0 mm 0.00 in0.0 mm 0.00 in0.0 mm
11:34 AM 71.8°F22.1°C 48.0°F8.9°C 43% 6.9 mph SSW11.1 kmh SSW 11.2 mph18.0 kmh 30.21 in1023.0 mb 0.00 in0.0 mm 0.00 in0.0 mm 0.00 in0.0 mm
11:39 AM 72.3°F22.4°C 47.8°F8.8°C 42% 7.7 mph S12.4 kmh S 12.0 mph19.3 kmh 30.18 in1022.0 mb 0.00 in0.0 mm 0.00 in0.0 mm 0.00 in0.0 mm
11:44 AM 72.3°F22.4°C 47.8°F8.8°C 42% 7.7 mph WSW12.4 kmh WSW 12.0 mph19.3 kmh 30.18 in1022.0 mb 0.00 in0.0 mm 0.00 in0.0 mm 0.00 in0.0 mm
11:49 AM 71.9°F22.2°C 46.8°F8.2°C 41% 11.5 mph S18.5 kmh S 17.0 mph27.4 kmh 30.18 in1022.0 mb 0.00 in0.0 mm 0.00 in0.0 mm 0.00 in0.0 mm
11:54 AM 72.5°F22.5°C 47.3°F8.5°C 41% 11.9 mph S19.2 kmh S 23.8 mph38.3 kmh 30.21 in1023.0 mb 0.00 in0.0 mm 0.00 in0.0 mm 0.00 in0.0 mm
11:59 AM 72.1°F22.3°C 46.3°F7.9°C 40% 9.1 mph W14.6 kmh W 23.8 mph38.3 kmh 30.21 in1023.0 mb 0.00 in0.0 mm 0.00 in0.0 mm 0.00 in0.0 mm
12:04 PM 71.9°F22.2°C 46.1°F7.8°C 40% 9.2 mph W14.8 kmh W 13.0 mph20.9 kmh 30.21 in1023.0 mb 0.00 in0.0 mm 0.00 in0.0 mm 0.00 in0.0 mm
12:09 PM 72.7°F22.6°C 46.8°F8.2°C 40% 7.5 mph SW12.1 kmh SW 13.0 mph20.9 kmh 30.18 in1022.0 mb 0.00 in0.0 mm 0.00 in0.0 mm 0.00 in0.0 mm
12:14 PM 72.8°F22.7°C 46.2°F7.9°C 39% 7.3 mph WSW11.7 kmh WSW 12.6 mph20.3 kmh 30.18 in1022.0 mb 0.00 in0.0 mm 0.00 in0.0 mm 0.00 in0.0 mm
12:20 PM 72.8°F22.7°C 46.9°F8.3°C 40% 10.5 mph SSW16.9 kmh SSW 24.2 mph38.9 kmh 30.18 in1022.0 mb 0.00 in0.0 mm 0.00 in0.0 mm 0.00 in0.0 mm
12:25 PM 73.4°F23.0°C 47.4°F8.6°C 40% 8.2 mph SW13.2 kmh SW 24.2 mph38.9 kmh 30.21 in1023.0 mb 0.00 in0.0 mm 0.00 in0.0 mm 0.00 in0.0 mm
12:31 PM 73.2°F22.9°C 46.6°F8.1°C 39% 9.7 mph S15.6 kmh S 20.2 mph32.5 kmh 30.21 in1023.0 mb 0.00 in0.0 mm 0.00 in0.0 mm 0.00 in0.0 mm
12:36 PM 73.7°F23.2°C 46.3°F7.9°C 38% 8.6 mph SSW13.8 kmh SSW 20.2 mph32.5 kmh 30.21 in1023.0 mb 0.00 in0.0 mm 0.00 in0.0 mm 0.00 in0.0 mm
12:42 PM 73.9°F23.3°C 46.5°F8.1°C 38% 7.8 mph S12.6 kmh S 19.6 mph31.5 kmh 30.21 in1023.0 mb 0.00 in0.0 mm 0.00 in0.0 mm 0.00 in0.0 mm
12:47 PM 75.2°F24.0°C 47.7°F8.7°C 38% 7.2 mph S11.6 kmh S 19.6 mph31.5 kmh 30.21 in1023.0 mb 0.00 in0.0 mm 0.00 in0.0 mm 0.00 in0.0 mm
12:52 PM 75.0°F23.9°C 46.8°F8.2°C 37% 7.9 mph WSW12.7 kmh WSW 12.6 mph20.3 kmh 30.15 in1021.0 mb 0.00 in0.0 mm 0.00 in0.0 mm 0.00 in0.0 mm
12:57 PM 75.0°F23.9°C 46.0°F7.8°C 36% 6.2 mph WSW10.0 kmh WSW 12.6 mph20.3 kmh 30.15 in1021.0 mb 0.00 in0.0 mm 0.00 in0.0 mm 0.00 in0.0 mm
01:02 PM 75.2°F24.0°C 46.9°F8.3°C 37% 7.5 mph SSW12.1 kmh SSW 12.0 mph19.3 kmh 30.15 in1021.0 mb 0.00 in0.0 mm 0.00 in0.0 mm 0.00 in0.0 mm
01:07 PM 75.5°F24.2°C 45.7°F7.6°C 35% 9.9 mph SW15.9 kmh SW 20.2 mph32.5 kmh 30.15 in1021.0 mb 0.00 in0.0 mm 0.00 in0.0 mm 0.00 in0.0 mm
01:12 PM 75.4°F24.1°C 45.6°F7.6°C 35% 7.5 mph SW12.1 kmh SW 22.4 mph36.0 kmh 30.15 in1021.0 mb 0.00 in0.0 mm 0.00 in0.0 mm 0.00 in0.0 mm
01:17 PM 76.1°F24.5°C 46.2°F7.9°C 35% 7.8 mph S12.6 kmh S 22.4 mph36.0 kmh 30.15 in1021.0 mb 0.00 in0.0 mm 0.00 in0.0 mm 0.00 in0.0 mm
01:22 PM 78.1°F25.6°C 48.8°F9.3°C 36% 5.2 mph SSW8.4 kmh SSW 13.0 mph20.9 kmh 30.15 in1021.0 mb 0.00 in0.0 mm 0.00 in0.0 mm 0.00 in0.0 mm
01:27 PM 77.5°F25.3°C 46.7°F8.2°C 34% 11.0 mph SSW17.7 kmh SSW 19.2 mph30.9 kmh 30.15 in1021.0 mb 0.00 in0.0 mm 0.00 in0.0 mm 0.00 in0.0 mm
01:32 PM 77.0°F25.0°C 46.3°F7.9°C 34% 10.1 mph S16.3 kmh S 19.6 mph31.5 kmh 30.15 in1021.0 mb 0.00 in0.0 mm 0.00 in0.0 mm 0.00 in0.0 mm
01:37 PM 76.4°F24.7°C 46.5°F8.1°C 35% 12.1 mph SSW19.5 kmh SSW 19.6 mph31.5 kmh 30.15 in1021.0 mb 0.00 in0.0 mm 0.00 in0.0 mm 0.00 in0.0 mm
01:43 PM 77.2°F25.1°C 46.4°F8.0°C 34% 12.6 mph S20.3 kmh S 17.0 mph27.4 kmh 30.15 in1021.0 mb 0.00 in0.0 mm 0.00 in0.0 mm 0.00 in0.0 mm
01:48 PM 77.2°F25.1°C 46.4°F8.0°C 34% 7.8 mph SW12.6 kmh SW 19.2 mph30.9 kmh 30.15 in1021.0 mb 0.00 in0.0 mm 0.00 in0.0 mm 0.00 in0.0 mm
01:53 PM 77.3°F25.2°C 45.7°F7.6°C 33% 10.9 mph S17.5 kmh S 19.2 mph30.9 kmh 30.15 in1021.0 mb 0.00 in0.0 mm 0.00 in0.0 mm 0.00 in0.0 mm
01:58 PM 77.5°F25.3°C 45.9°F7.7°C 33% 7.5 mph SW12.1 kmh SW 17.4 mph28.0 kmh 30.15 in1021.0 mb 0.00 in0.0 mm 0.00 in0.0 mm 0.00 in0.0 mm
02:03 PM 77.3°F25.2°C 45.7°F7.6°C 33% 9.8 mph WNW15.8 kmh WNW 17.4 mph28.0 kmh 30.15 in1021.0 mb 0.00 in0.0 mm 0.00 in0.0 mm 0.00 in0.0 mm
02:08 PM 77.9°F25.5°C 46.3°F7.9°C 33% 7.0 mph SW11.3 kmh SW 13.0 mph20.9 kmh 30.15 in1021.0 mb 0.00 in0.0 mm 0.00 in0.0 mm 0.00 in0.0 mm
02:16 PM 78.2°F25.7°C 46.5°F8.1°C 33% 8.6 mph SW13.8 kmh SW 14.8 mph23.8 kmh 30.15 in1021.0 mb 0.00 in0.0 mm 0.00 in0.0 mm 0.00 in0.0 mm
02:21 PM 78.4°F25.8°C 46.7°F8.2°C 33% 8.6 mph SW13.8 kmh SW 22.0 mph35.4 kmh 30.15 in1021.0 mb 0.00 in0.0 mm 0.00 in0.0 mm 0.00 in0.0 mm
02:27 PM 78.6°F25.9°C 46.1°F7.8°C 32% 9.2 mph WSW14.8 kmh WSW 22.0 mph35.4 kmh 30.15 in1021.0 mb 0.00 in0.0 mm 0.00 in0.0 mm 0.00 in0.0 mm
02:32 PM 78.2°F25.7°C 45.7°F7.6°C 32% 11.6 mph SSW18.7 kmh SSW 21.4 mph34.4 kmh 30.15 in1021.0 mb 0.00 in0.0 mm 0.00 in0.0 mm 0.00 in0.0 mm
02:38 PM 78.6°F25.9°C 46.1°F7.8°C 32% 7.2 mph SW11.6 kmh SW 21.4 mph34.4 kmh 30.12 in1020.0 mb 0.00 in0.0 mm 0.00 in0.0 mm 0.00 in0.0 mm
02:43 PM 79.1°F26.2°C 46.5°F8.1°C 32% 6.8 mph SSW10.9 kmh SSW 18.8 mph30.3 kmh 30.12 in1020.0 mb 0.00 in0.0 mm 0.00 in0.0 mm 0.00 in0.0 mm
02:48 PM 79.0°F26.1°C 45.6°F7.6°C 31% 7.1 mph SSW11.4 kmh SSW 14.8 mph23.8 kmh 30.12 in1020.0 mb 0.00 in0.0 mm 0.00 in0.0 mm 0.00 in0.0 mm
02:53 PM 78.1°F25.6°C 44.8°F7.1°C 31% 10.3 mph W16.6 kmh W 14.8 mph23.8 kmh 30.12 in1020.0 mb 0.00 in0.0 mm 0.00 in0.0 mm 0.00 in0.0 mm
02:58 PM 79.0°F26.1°C 45.6°F7.6°C 31% 8.4 mph SSW13.5 kmh SSW 13.4 mph21.6 kmh 30.12 in1020.0 mb 0.00 in0.0 mm 0.00 in0.0 mm 0.00 in0.0 mm
03:03 PM 79.0°F26.1°C 45.6°F7.6°C 31% 8.3 mph WSW13.4 kmh WSW 13.0 mph20.9 kmh 30.12 in1020.0 mb 0.00 in0.0 mm 0.00 in0.0 mm 0.00 in0.0 mm
03:09 PM 79.1°F26.2°C 45.6°F7.6°C 31% 9.7 mph SSW15.6 kmh SSW 17.0 mph27.4 kmh 30.09 in1019.0 mb 0.00 in0.0 mm 0.00 in0.0 mm 0.00 in0.0 mm
03:14 PM 78.8°F26.0°C 45.4°F7.4°C 31% 12.3 mph SSW19.8 kmh SSW 18.4 mph29.6 kmh 30.09 in1019.0 mb 0.00 in0.0 mm 0.00 in0.0 mm 0.00 in0.0 mm
03:19 PM 78.6°F25.9°C 45.2°F7.3°C 31% 12.4 mph SSW20.0 kmh SSW 18.4 mph29.6 kmh 30.09 in1019.0 mb 0.00 in0.0 mm 0.00 in0.0 mm 0.00 in0.0 mm
03:24 PM 78.8°F26.0°C 45.4°F7.4°C 31% 8.9 mph SW14.3 kmh SW 17.4 mph28.0 kmh 30.09 in1019.0 mb 0.00 in0.0 mm 0.00 in0.0 mm 0.00 in0.0 mm
03:29 PM 79.0°F26.1°C 45.6°F7.6°C 31% 8.4 mph SW13.5 kmh SW 20.6 mph33.2 kmh 30.09 in1019.0 mb 0.00 in0.0 mm 0.00 in0.0 mm 0.00 in0.0 mm
03:34 PM 79.3°F26.3°C 45.8°F7.7°C 31% 6.8 mph SW10.9 kmh SW 20.6 mph33.2 kmh 30.09 in1019.0 mb 0.00 in0.0 mm 0.00 in0.0 mm 0.00 in0.0 mm
03:39 PM 79.3°F26.3°C 45.8°F7.7°C 31% 8.0 mph SW12.9 kmh SW 15.6 mph25.1 kmh 30.12 in1020.0 mb 0.00 in0.0 mm 0.00 in0.0 mm 0.00 in0.0 mm
03:44 PM 79.1°F26.2°C 45.6°F7.6°C 31% 11.0 mph SW17.7 kmh SW 17.0 mph27.4 kmh 30.12 in1020.0 mb 0.00 in0.0 mm 0.00 in0.0 mm 0.00 in0.0 mm
03:49 PM 79.3°F26.3°C 45.8°F7.7°C 31% 9.1 mph S14.6 kmh S 17.0 mph27.4 kmh 30.12 in1020.0 mb 0.00 in0.0 mm 0.00 in0.0 mm 0.00 in0.0 mm
03:55 PM 78.6°F25.9°C 45.2°F7.3°C 31% 15.1 mph S24.3 kmh S 26.8 mph43.1 kmh 30.09 in1019.0 mb 0.00 in0.0 mm 0.00 in0.0 mm 0.00 in0.0 mm
03:59 PM 79.1°F26.2°C 45.6°F7.6°C 31% 7.5 mph SW12.1 kmh SW 26.8 mph43.1 kmh 30.09 in1019.0 mb 0.00 in0.0 mm 0.00 in0.0 mm 0.00 in0.0 mm
04:05 PM 79.7°F26.5°C 46.2°F7.9°C 31% 8.1 mph SSW13.0 kmh SSW 11.2 mph18.0 kmh 30.09 in1019.0 mb 0.00 in0.0 mm 0.00 in0.0 mm 0.00 in0.0 mm
04:09 PM 79.1°F26.2°C 45.6°F7.6°C 31% 9.6 mph SW15.4 kmh SW 17.4 mph28.0 kmh 30.09 in1019.0 mb 0.00 in0.0 mm 0.00 in0.0 mm 0.00 in0.0 mm
04:15 PM 78.8°F26.0°C 45.4°F7.4°C 31% 9.7 mph SSW15.6 kmh SSW 17.4 mph28.0 kmh 30.09 in1019.0 mb 0.00 in0.0 mm 0.00 in0.0 mm 0.00 in0.0 mm
04:19 PM 79.0°F26.1°C 45.6°F7.6°C 31% 8.9 mph SW14.3 kmh SW 15.2 mph24.5 kmh 30.09 in1019.0 mb 0.00 in0.0 mm 0.00 in0.0 mm 0.00 in0.0 mm
04:25 PM 78.6°F25.9°C 45.2°F7.3°C 31% 8.7 mph SW14.0 kmh SW 18.8 mph30.3 kmh 30.06 in1017.9 mb 0.00 in0.0 mm 0.00 in0.0 mm 0.00 in0.0 mm
04:30 PM 78.2°F25.7°C 44.9°F7.2°C 31% 6.9 mph SW11.1 kmh SW 18.8 mph30.3 kmh 30.06 in1017.9 mb 0.00 in0.0 mm 0.00 in0.0 mm 0.00 in0.0 mm
04:35 PM 78.4°F25.8°C 45.0°F7.2°C 31% 8.1 mph SW13.0 kmh SW 13.0 mph20.9 kmh 30.06 in1017.9 mb 0.00 in0.0 mm 0.00 in0.0 mm 0.00 in0.0 mm
04:40 PM 78.2°F25.7°C 45.7°F7.6°C 32% 7.8 mph S12.6 kmh S 19.6 mph31.5 kmh 30.03 in1016.9 mb 0.00 in0.0 mm 0.00 in0.0 mm 0.00 in0.0 mm
04:45 PM 78.2°F25.7°C 45.7°F7.6°C 32% 8.0 mph S12.9 kmh S 19.6 mph31.5 kmh 30.03 in1016.9 mb 0.00 in0.0 mm 0.00 in0.0 mm 0.00 in0.0 mm
04:50 PM 78.1°F25.6°C 45.6°F7.6°C 32% 10.4 mph SSW16.7 kmh SSW 14.8 mph23.8 kmh 30.03 in1016.9 mb 0.00 in0.0 mm 0.00 in0.0 mm 0.00 in0.0 mm
04:55 PM 77.3°F25.2°C 44.9°F7.2°C 32% 7.5 mph SW12.1 kmh SW 14.8 mph23.8 kmh 30.03 in1016.9 mb 0.00 in0.0 mm 0.00 in0.0 mm 0.00 in0.0 mm
05:01 PM 77.3°F25.2°C 44.9°F7.2°C 32% 6.6 mph WSW10.6 kmh WSW 11.2 mph18.0 kmh 30.03 in1016.9 mb 0.00 in0.0 mm 0.00 in0.0 mm 0.00 in0.0 mm
05:06 PM 77.2°F25.1°C 44.8°F7.1°C 32% 6.3 mph S10.1 kmh S 13.0 mph20.9 kmh 30.03 in1016.9 mb 0.00 in0.0 mm 0.00 in0.0 mm 0.00 in0.0 mm
05:12 PM 77.0°F25.0°C 44.7°F7.1°C 32% 13.0 mph S20.9 kmh S 21.0 mph33.8 kmh 30.03 in1016.9 mb 0.00 in0.0 mm 0.00 in0.0 mm 0.00 in0.0 mm
05:17 PM 76.3°F24.6°C 44.0°F6.7°C 32% 12.0 mph SSW19.3 kmh SSW 22.0 mph35.4 kmh 30.03 in1016.9 mb 0.00 in0.0 mm 0.00 in0.0 mm 0.00 in0.0 mm
05:23 PM 76.6°F24.8°C 45.1°F7.3°C 33% 4.7 mph SSW7.6 kmh SSW 22.0 mph35.4 kmh 30.03 in1016.9 mb 0.00 in0.0 mm 0.00 in0.0 mm 0.00 in0.0 mm
05:28 PM 76.3°F24.6°C 44.9°F7.2°C 33% 6.7 mph SSW10.8 kmh SSW 11.2 mph18.0 kmh 30.03 in1016.9 mb 0.00 in0.0 mm 0.00 in0.0 mm 0.00 in0.0 mm
05:33 PM 75.5°F24.2°C 43.3°F6.3°C 32% 6.2 mph SW10.0 kmh SW 15.2 mph24.5 kmh 30.03 in1016.9 mb 0.00 in0.0 mm 0.00 in0.0 mm 0.00 in0.0 mm
05:38 PM 75.5°F24.2°C 44.2°F6.8°C 33% 7.5 mph SW12.1 kmh SW 15.2 mph24.5 kmh 30.00 in1015.9 mb 0.00 in0.0 mm 0.00 in0.0 mm 0.00 in0.0 mm
05:44 PM 75.5°F24.2°C 44.2°F6.8°C 33% 6.3 mph WSW10.1 kmh WSW 10.8 mph17.4 kmh 30.00 in1015.9 mb 0.00 in0.0 mm 0.00 in0.0 mm 0.00 in0.0 mm
05:49 PM 75.4°F24.1°C 44.1°F6.7°C 33% 7.0 mph SW11.3 kmh SW 10.8 mph17.4 kmh 30.00 in1015.9 mb 0.00 in0.0 mm 0.00 in0.0 mm 0.00 in0.0 mm
05:54 PM 74.8°F23.8°C 43.5°F6.4°C 33% 8.9 mph S14.3 kmh S 16.2 mph26.1 kmh 30.00 in1015.9 mb 0.00 in0.0 mm 0.00 in0.0 mm 0.00 in0.0 mm
05:59 PM 74.5°F23.6°C 43.3°F6.3°C 33% 9.8 mph S15.8 kmh S 16.2 mph26.1 kmh 30.00 in1015.9 mb 0.00 in0.0 mm 0.00 in0.0 mm 0.00 in0.0 mm
06:05 PM 74.3°F23.5°C 43.1°F6.2°C 33% 8.9 mph SSE14.3 kmh SSE 17.4 mph28.0 kmh 30.00 in1015.9 mb 0.00 in0.0 mm 0.00 in0.0 mm 0.00 in0.0 mm
06:09 PM 74.1°F23.4°C 42.9°F6.1°C 33% 6.1 mph S9.8 kmh S 17.4 mph28.0 kmh 30.00 in1015.9 mb 0.00 in0.0 mm 0.00 in0.0 mm 0.00 in0.0 mm
06:14 PM 73.9°F23.3°C 42.8°F6.0°C 33% 8.2 mph WSW13.2 kmh WSW 11.2 mph18.0 kmh 30.00 in1015.9 mb 0.00 in0.0 mm 0.00 in0.0 mm 0.00 in0.0 mm
06:19 PM 74.1°F23.4°C 42.9°F6.1°C 33% 6.7 mph S10.8 kmh S 13.0 mph20.9 kmh 30.00 in1015.9 mb 0.00 in0.0 mm 0.00 in0.0 mm 0.00 in0.0 mm
06:25 PM 73.9°F23.3°C 42.8°F6.0°C 33% 7.4 mph SW11.9 kmh SW 11.2 mph18.0 kmh 30.03 in1016.9 mb 0.00 in0.0 mm 0.00 in0.0 mm 0.00 in0.0 mm
06:30 PM 73.4°F23.0°C 42.3°F5.7°C 33% 5.7 mph S9.2 kmh S 12.0 mph19.3 kmh 30.03 in1016.9 mb 0.00 in0.0 mm 0.00 in0.0 mm 0.00 in0.0 mm
06:36 PM 72.8°F22.7°C 42.6°F5.9°C 34% 6.0 mph SSW9.7 kmh SSW 12.0 mph19.3 kmh 30.03 in1016.9 mb 0.00 in0.0 mm 0.00 in0.0 mm 0.00 in0.0 mm
06:41 PM 72.5°F22.5°C 42.3°F5.7°C 34% 7.4 mph SSW11.9 kmh SSW 15.2 mph24.5 kmh 30.03 in1016.9 mb 0.00 in0.0 mm 0.00 in0.0 mm 0.00 in0.0 mm
06:46 PM 72.1°F22.3°C 42.0°F5.6°C 34% 7.0 mph SSW11.3 kmh SSW 15.2 mph24.5 kmh 30.03 in1016.9 mb 0.00 in0.0 mm 0.00 in0.0 mm 0.00 in0.0 mm
06:51 PM 71.9°F22.2°C 41.8°F5.4°C 34% 4.9 mph SSW7.9 kmh SSW 11.6 mph18.7 kmh 30.03 in1016.9 mb 0.00 in0.0 mm 0.00 in0.0 mm 0.00 in0.0 mm
06:56 PM 71.6°F22.0°C 42.3°F5.7°C 35% 5.2 mph S8.4 kmh S 7.6 mph12.2 kmh 30.03 in1016.9 mb 0.00 in0.0 mm 0.00 in0.0 mm 0.00 in0.0 mm
07:01 PM 71.6°F22.0°C 42.3°F5.7°C 35% 7.3 mph S11.7 kmh S 8.0 mph12.9 kmh 30.03 in1016.9 mb 0.00 in0.0 mm 0.00 in0.0 mm 0.00 in0.0 mm
07:06 PM 71.4°F21.9°C 42.1°F5.6°C 35% 5.3 mph SW8.5 kmh SW 9.4 mph15.1 kmh 30.03 in1016.9 mb 0.00 in0.0 mm 0.00 in0.0 mm 0.00 in0.0 mm
07:11 PM 71.0°F21.7°C 41.7°F5.4°C 35% 5.5 mph SSW8.9 kmh SSW 20.6 mph33.2 kmh 30.06 in1017.9 mb 0.00 in0.0 mm 0.00 in0.0 mm 0.00 in0.0 mm
07:16 PM 70.9°F21.6°C 41.7°F5.4°C 35% 6.9 mph SW11.1 kmh SW 20.6 mph33.2 kmh 30.06 in1017.9 mb 0.00 in0.0 mm 0.00 in0.0 mm 0.00 in0.0 mm
07:21 PM 70.5°F21.4°C 41.3°F5.2°C 35% 5.3 mph SSW8.5 kmh SSW 11.2 mph18.0 kmh 30.06 in1017.9 mb 0.00 in0.0 mm 0.00 in0.0 mm 0.00 in0.0 mm
07:26 PM 70.3°F21.3°C 41.1°F5.1°C 35% 6.7 mph SSW10.8 kmh SSW 11.2 mph18.0 kmh 30.03 in1016.9 mb 0.00 in0.0 mm 0.00 in0.0 mm 0.00 in0.0 mm
07:31 PM 70.1°F21.2°C 41.7°F5.4°C 36% 5.9 mph SSW9.5 kmh SSW 10.8 mph17.4 kmh 30.03 in1016.9 mb 0.00 in0.0 mm 0.00 in0.0 mm 0.00 in0.0 mm
07:36 PM 69.8°F21.0°C 41.4°F5.2°C 36% 6.5 mph SSW10.5 kmh SSW 11.2 mph18.0 kmh 30.03 in1016.9 mb 0.00 in0.0 mm 0.00 in0.0 mm 0.00 in0.0 mm
07:41 PM 69.4°F20.8°C 41.8°F5.4°C 37% 5.3 mph S8.5 kmh S 11.2 mph18.0 kmh 30.06 in1017.9 mb 0.00 in0.0 mm 0.00 in0.0 mm 0.00 in0.0 mm
07:46 PM 69.1°F20.6°C 41.5°F5.3°C 37% 5.7 mph SW9.2 kmh SW 11.2 mph18.0 kmh 30.06 in1017.9 mb 0.00 in0.0 mm 0.00 in0.0 mm 0.00 in0.0 mm
07:51 PM 69.1°F20.6°C 41.5°F5.3°C 37% 6.3 mph SSW10.1 kmh SSW 11.2 mph18.0 kmh 30.06 in1017.9 mb 0.00 in0.0 mm 0.00 in0.0 mm 0.00 in0.0 mm
07:56 PM 68.9°F20.5°C 41.3°F5.2°C 37% 4.8 mph SSW7.7 kmh SSW 12.6 mph20.3 kmh 30.03 in1016.9 mb 0.00 in0.0 mm 0.00 in0.0 mm 0.00 in0.0 mm
08:01 PM 68.5°F20.3°C 41.0°F5.0°C 37% 5.3 mph SSW8.5 kmh SSW 12.6 mph20.3 kmh 30.03 in1016.9 mb 0.00 in0.0 mm 0.00 in0.0 mm 0.00 in0.0 mm
08:06 PM 68.2°F20.1°C 41.4°F5.2°C 38% 3.8 mph SSW6.1 kmh SSW 9.4 mph15.1 kmh 30.03 in1016.9 mb 0.00 in0.0 mm 0.00 in0.0 mm 0.00 in0.0 mm
08:11 PM 67.8°F19.9°C 41.1°F5.1°C 38% 4.6 mph SSW7.4 kmh SSW 9.4 mph15.1 kmh 30.03 in1016.9 mb 0.00 in0.0 mm 0.00 in0.0 mm 0.00 in0.0 mm
08:16 PM 67.3°F19.6°C 41.3°F5.2°C 39% 4.3 mph SSW6.9 kmh SSW 7.6 mph12.2 kmh 30.03 in1016.9 mb 0.00 in0.0 mm 0.00 in0.0 mm 0.00 in0.0 mm
08:21 PM 67.3°F19.6°C 41.3°F5.2°C 39% 6.6 mph SSW10.6 kmh SSW 9.4 mph15.1 kmh 30.06 in1017.9 mb 0.00 in0.0 mm 0.00 in0.0 mm 0.00 in0.0 mm
08:26 PM 67.4°F19.7°C 41.4°F5.2°C 39% 6.2 mph SSW10.0 kmh SSW 9.4 mph15.1 kmh 30.06 in1017.9 mb 0.00 in0.0 mm 0.00 in0.0 mm 0.00 in0.0 mm
08:31 PM 67.3°F19.6°C 41.3°F5.2°C 39% 4.1 mph SSW6.6 kmh SSW 7.2 mph11.6 kmh 30.06 in1017.9 mb 0.00 in0.0 mm 0.00 in0.0 mm 0.00 in0.0 mm
08:36 PM 67.1°F19.5°C 41.1°F5.1°C 39% 4.0 mph S6.4 kmh S 8.0 mph12.9 kmh 30.03 in1016.9 mb 0.00 in0.0 mm 0.00 in0.0 mm 0.00 in0.0 mm
08:41 PM 66.5°F19.2°C 40.6°F4.8°C 39% 2.9 mph SSW4.7 kmh SSW 8.0 mph12.9 kmh 30.03 in1016.9 mb 0.00 in0.0 mm 0.00 in0.0 mm 0.00 in0.0 mm
08:47 PM 66.2°F19.0°C 41.0°F5.0°C 40% 3.9 mph SSW6.3 kmh SSW 6.2 mph10.0 kmh 30.03 in1016.9 mb 0.00 in0.0 mm 0.00 in0.0 mm 0.00 in0.0 mm
08:52 PM 66.0°F18.9°C 40.8°F4.9°C 40% 4.6 mph SSE7.4 kmh SSE 6.2 mph10.0 kmh 30.06 in1017.9 mb 0.00 in0.0 mm 0.00 in0.0 mm 0.00 in0.0 mm
08:57 PM 65.6°F18.7°C 41.1°F5.1°C 41% 4.0 mph S6.4 kmh S 6.2 mph10.0 kmh 30.06 in1017.9 mb 0.00 in0.0 mm 0.00 in0.0 mm 0.00 in0.0 mm
09:02 PM 65.3°F18.5°C 40.8°F4.9°C 41% 2.9 mph S4.7 kmh S 6.2 mph10.0 kmh 30.06 in1017.9 mb 0.00 in0.0 mm 0.00 in0.0 mm 0.00 in0.0 mm
09:07 PM 64.7°F18.2°C 40.9°F4.9°C 42% 4.3 mph S6.9 kmh S 6.2 mph10.0 kmh 30.06 in1017.9 mb 0.00 in0.0 mm 0.00 in0.0 mm 0.00 in0.0 mm
09:12 PM 64.9°F18.3°C 40.5°F4.7°C 41% 3.7 mph SSW6.0 kmh SSW 6.2 mph10.0 kmh 30.06 in1017.9 mb 0.00 in0.0 mm 0.00 in0.0 mm 0.00 in0.0 mm
09:19 PM 64.6°F18.1°C 40.8°F4.9°C 42% 4.5 mph S7.2 kmh S 6.8 mph10.9 kmh 30.06 in1017.9 mb 0.00 in0.0 mm 0.00 in0.0 mm 0.00 in0.0 mm
09:24 PM 64.7°F18.2°C 40.9°F4.9°C 42% 3.1 mph SSE5.0 kmh SSE 6.2 mph10.0 kmh 30.06 in1017.9 mb 0.00 in0.0 mm 0.00 in0.0 mm 0.00 in0.0 mm
09:29 PM 64.6°F18.1°C 40.8°F4.9°C 42% 3.7 mph S6.0 kmh S 5.8 mph9.3 kmh 30.06 in1017.9 mb 0.00 in0.0 mm 0.00 in0.0 mm 0.00 in0.0 mm
09:34 PM 64.6°F18.1°C 40.8°F4.9°C 42% 4.8 mph SSW7.7 kmh SSW 6.8 mph10.9 kmh 30.06 in1017.9 mb 0.00 in0.0 mm 0.00 in0.0 mm 0.00 in0.0 mm
09:39 PM 64.6°F18.1°C 40.8°F4.9°C 42% 3.7 mph S6.0 kmh S 7.6 mph12.2 kmh 30.09 in1019.0 mb 0.00 in0.0 mm 0.00 in0.0 mm 0.00 in0.0 mm
09:44 PM 64.4°F18.0°C 40.7°F4.8°C 42% 5.1 mph S8.2 kmh S 7.6 mph12.2 kmh 30.09 in1019.0 mb 0.00 in0.0 mm 0.00 in0.0 mm 0.00 in0.0 mm
09:49 PM 64.0°F17.8°C 40.9°F4.9°C 43% 3.1 mph S5.0 kmh S 5.8 mph9.3 kmh 30.09 in1019.0 mb 0.00 in0.0 mm 0.00 in0.0 mm 0.00 in0.0 mm
09:54 PM 63.7°F17.6°C 40.7°F4.8°C 43% 3.8 mph S6.1 kmh S 5.8 mph9.3 kmh 30.09 in1019.0 mb 0.00 in0.0 mm 0.00 in0.0 mm 0.00 in0.0 mm
10:00 PM 63.7°F17.6°C 40.7°F4.8°C 43% 3.2 mph S5.1 kmh S 7.6 mph12.2 kmh 30.09 in1019.0 mb 0.00 in0.0 mm 0.00 in0.0 mm 0.00 in0.0 mm
10:05 PM 63.1°F17.3°C 40.1°F4.5°C 43% 3.2 mph SSW5.1 kmh SSW 7.6 mph12.2 kmh 30.09 in1019.0 mb 0.00 in0.0 mm 0.00 in0.0 mm 0.00 in0.0 mm
10:10 PM 62.9°F17.2°C 40.5°F4.7°C 44% 4.5 mph S7.2 kmh S 5.8 mph9.3 kmh 30.09 in1019.0 mb 0.00 in0.0 mm 0.00 in0.0 mm 0.00 in0.0 mm
10:15 PM 62.8°F17.1°C 40.4°F4.7°C 44% 3.6 mph S5.8 kmh S 5.8 mph9.3 kmh 30.09 in1019.0 mb 0.00 in0.0 mm 0.00 in0.0 mm 0.00 in0.0 mm
10:20 PM 62.8°F17.1°C 40.4°F4.7°C 44% 4.3 mph S6.9 kmh S 5.8 mph9.3 kmh 30.09 in1019.0 mb 0.00 in0.0 mm 0.00 in0.0 mm 0.00 in0.0 mm
10:25 PM 62.8°F17.1°C 40.4°F4.7°C 44% 4.1 mph S6.6 kmh S 5.8 mph9.3 kmh 30.12 in1020.0 mb 0.00 in0.0 mm 0.00 in0.0 mm 0.00 in0.0 mm
10:31 PM 62.6°F17.0°C 40.3°F4.6°C 44% 5.0 mph S8.0 kmh S 5.8 mph9.3 kmh 30.12 in1020.0 mb 0.00 in0.0 mm 0.00 in0.0 mm 0.00 in0.0 mm
10:36 PM 62.4°F16.9°C 40.1°F4.5°C 44% 5.1 mph S8.2 kmh S 6.2 mph10.0 kmh 30.12 in1020.0 mb 0.00 in0.0 mm 0.00 in0.0 mm 0.00 in0.0 mm
10:41 PM 62.2°F16.8°C 40.5°F4.7°C 45% 3.6 mph S5.8 kmh S 6.2 mph10.0 kmh 30.12 in1020.0 mb 0.00 in0.0 mm 0.00 in0.0 mm 0.00 in0.0 mm
10:46 PM 61.9°F16.6°C 40.2°F4.6°C 45% 3.2 mph S5.1 kmh S 6.2 mph10.0 kmh 30.12 in1020.0 mb 0.00 in0.0 mm 0.00 in0.0 mm 0.00 in0.0 mm
10:51 PM 61.7°F16.5°C 40.0°F4.4°C 45% 3.4 mph S5.5 kmh S 5.4 mph8.7 kmh 30.09 in1019.0 mb 0.00 in0.0 mm 0.00 in0.0 mm 0.00 in0.0 mm
10:56 PM 61.1°F16.2°C 40.1°F4.5°C 46% 2.7 mph S4.3 kmh S 5.4 mph8.7 kmh 30.09 in1019.0 mb 0.00 in0.0 mm 0.00 in0.0 mm 0.00 in0.0 mm
11:01 PM 61.1°F16.2°C 40.1°F4.5°C 46% 5.4 mph S8.7 kmh S 6.2 mph10.0 kmh 30.09 in1019.0 mb 0.00 in0.0 mm 0.00 in0.0 mm 0.00 in0.0 mm
11:06 PM 61.0°F16.1°C 40.0°F4.4°C 46% 3.9 mph S6.3 kmh S 6.2 mph10.0 kmh 30.09 in1019.0 mb 0.00 in0.0 mm 0.00 in0.0 mm 0.00 in0.0 mm
11:11 PM 61.1°F16.2°C 40.7°F4.8°C 47% 5.2 mph S8.4 kmh S 5.8 mph9.3 kmh 30.09 in1019.0 mb 0.00 in0.0 mm 0.00 in0.0 mm 0.00 in0.0 mm
11:16 PM 61.0°F16.1°C 40.6°F4.8°C 47% 3.7 mph S6.0 kmh S 5.8 mph9.3 kmh 30.09 in1019.0 mb 0.00 in0.0 mm 0.00 in0.0 mm 0.00 in0.0 mm
11:21 PM 60.4°F15.8°C 40.0°F4.4°C 47% 2.8 mph SSE4.5 kmh SSE 5.4 mph8.7 kmh 30.09 in1019.0 mb 0.00 in0.0 mm 0.00 in0.0 mm 0.00 in0.0 mm
11:27 PM 60.4°F15.8°C 40.6°F4.8°C 48% 4.5 mph SSW7.2 kmh SSW 5.4 mph8.7 kmh 30.09 in1019.0 mb 0.00 in0.0 mm 0.00 in0.0 mm 0.00 in0.0 mm
11:33 PM 59.9°F15.5°C 40.1°F4.5°C 48% 3.4 mph S5.5 kmh S 5.4 mph8.7 kmh 30.09 in1019.0 mb 0.00 in0.0 mm 0.00 in0.0 mm 0.00 in0.0 mm
11:37 PM 59.8°F15.4°C 40.5°F4.7°C 49% 3.8 mph SSE6.1 kmh SSE 5.0 mph8.0 kmh 30.09 in1019.0 mb 0.00 in0.0 mm 0.00 in0.0 mm 0.00 in0.0 mm
11:44 PM 59.6°F15.3°C 40.3°F4.6°C 49% 3.6 mph S5.8 kmh S 5.8 mph9.3 kmh 30.09 in1019.0 mb 0.00 in0.0 mm 0.00 in0.0 mm 0.00 in0.0 mm
11:49 PM 59.8°F15.4°C 41.0°F5.0°C 50% 5.4 mph S8.7 kmh S 6.2 mph10.0 kmh 30.09 in1019.0 mb 0.00 in0.0 mm 0.00 in0.0 mm 0.00 in0.0 mm
11:54 PM 59.9°F15.5°C 41.2°F5.1°C 50% 5.2 mph S8.4 kmh S 6.2 mph10.0 kmh 30.06 in1017.9 mb 0.00 in0.0 mm 0.00 in0.0 mm 0.00 in0.0 mm
11:59 PM 59.9°F15.5°C 41.2°F5.1°C 50% 4.8 mph S7.7 kmh S 7.2 mph11.6 kmh 30.06 in1017.9 mb 0.00 in0.0 mm 0.00 in0.0 mm 0.00 in0.0 mm